• Join FlightAware (Why Join?)
  • Login
  • US Flag 
08:49AM EDT


 

Airport Tracker/Info


-or-


 

Live Flight TrackerFlight Track Log ✈ DAL3865 ✈ 28-Apr-2013 ✈ KPIT - KDTW

Flight Track Log - Related Links

Times and Time Zones

All times are in EDT time to prevent confusion due to time zone crossing. See the DAL3865 flight status page for this flight to view local times or setup timezone preferences in your user account.

Time Position Orientation Groundspeed Altitude Reporting Facility
EDT Latitude Longitude Course Direction KTS MPH feet Rate Location/Type
03:36PM 40.5731 -80.2194 288° West 263 303 6,100  Level Cleveland Center
03:37PM 40.5378 -80.5057 285° West  Level FlightAware Approximate
03:37PM 40.5797 -80.2933 277° West 282 325 8,900  Level Cleveland Center
03:38PM 40.5571 -80.6018 285° West  Level FlightAware Approximate
03:38PM 40.5944 -80.3808 283° West 276 318 10,900  Level Cleveland Center
03:39PM 40.5763 -80.6980 285° West  Level FlightAware Approximate
03:39PM 40.6092 -80.5119 278° West 311 358 12,300  Level Cleveland Center
03:40PM 40.6002 -80.7923 291° West  Level FlightAware Approximate
03:40PM 40.6258 -80.6214 281° West 330 380 13,700  Level Cleveland Center
03:41PM 40.6240 -80.8866 285° West  Level FlightAware Approximate
03:41PM 40.6467 -80.7417 283° West 343 395 15,100  Level Cleveland Center
03:42PM 40.6455 -80.9819 288° West  Level FlightAware Approximate
03:42PM 40.6650 -80.8678 281° West 343 395 16,600  Level Cleveland Center
03:43PM 40.6833 -80.9992 280° West 356 410 18,100 1,560 Climbing Cleveland Center
03:44PM 40.6994 -81.1308 279° West 366 421 19,800 1,440 Climbing Cleveland Center
03:45PM 40.7197 -81.2733 281° West 371 427 21,000 1,080 Climbing Cleveland Center
03:46PM 40.7375 -81.4081 280° West 371 427 22,000 480 Climbing Cleveland Center
03:47PM 40.8117 -81.5214 311° West 371 427 22,000  Level Cleveland Center
03:48PM 40.9003 -81.6242 319° Northwest 399 459 22,000  Level Cleveland Center
03:49PM 40.9892 -81.7275 319° Northwest 422 486 22,000  Level Cleveland Center
03:50PM 41.0756 -81.8281 319° Northwest 422 486 22,000  Level Cleveland Center
03:51PM 41.1539 -81.9122 321° Northwest 411 473 22,000  Level Cleveland Center
03:52PM 41.2358 -82.0189 316° Northwest 411 473 22,000  Level Cleveland Center
03:53PM 41.3242 -82.1231 318° Northwest 411 473 22,000 -60 Level Cleveland Center
03:54PM 41.4019 -82.2386 312° West 416 479 21,900 -1,320 Descending Cleveland Center
03:55PM 41.4811 -82.3708 309° West 416 479 19,400 -2,460 Descending Cleveland Center
03:56PM 41.5481 -82.4808 309° West 401 461 17,000 -2,340 Descending Cleveland Center
03:57PM 41.6150 -82.5911 309° West 390 449 14,800 -2,160 Descending Cleveland Center
03:58PM 41.6594 -82.6678 308° West 370 426 13,300 -2,040 Descending Cleveland Center
03:58PM 41.6778 -82.6989 308° West 380 437 12,800 -1,320 Descending Cleveland Center
03:59PM 41.7222 -82.7725 309° West 352 405 12,000 -840 Descending Cleveland Center
03:59PM 41.7406 -82.7956 317° Northwest 367 422 12,000  Level Cleveland Center
04:00PM 41.8036 -82.8756 317° Northwest 348 400 12,000  Level Cleveland Center
04:01PM 41.8769 -82.9647 318° Northwest 351 404 12,000  Level Cleveland Center
04:02PM 41.9603 -83.0628 319° Northwest 351 404 12,000  Level Cleveland Center
04:03PM 42.0314 -83.1467 319° Northwest 343 395 12,000  Level Cleveland Center
04:04PM 42.0739 -83.2017 316° Northwest 329 379 12,000 -480 Level Cleveland Center
04:05PM 42.1483 -83.2269 346° North 255 293 11,100 -1,200 Descending Cleveland Center
04:06PM 42.2219 -83.1992 16° North 247 284 9,700 -1,500 Descending Cleveland Center
04:07PM 42.2836 -83.1483 31° Northeast 239 275 8,200 -1,260 Descending Cleveland Center
04:08PM 42.3469 -83.1061 26° Northeast 230 265 7,300 -1,200 Descending Cleveland Center
04:09PM 42.4103 -83.0806 17° North 228 262 5,700 -1,080 Descending Cleveland Center
04:10PM 42.4483 -83.1467 308° West 192 221 5,000 -360 Descending Cleveland Center
04:12PM 42.4117 -83.1958 225° Southwest 171 197 5,000 -420 Level Cleveland Center
04:12PM 42.3758 -83.2197 206° Southwest 171 197 4,200 -1,020 Descending Cleveland Center